sensor_id;sensor_type;location;lat;lon;timestamp;temperature;humidity
65582;DHT22;52231;40.090;18.348;2024-02-28T00:01:03;13.30;91.50
65582;DHT22;52231;40.090;18.348;2024-02-28T00:03:31;13.30;91.60
65582;DHT22;52231;40.090;18.348;2024-02-28T00:06:01;13.40;91.60
65582;DHT22;52231;40.090;18.348;2024-02-28T00:08:29;13.40;91.60
65582;DHT22;52231;40.090;18.348;2024-02-28T00:10:57;13.40;91.50
65582;DHT22;52231;40.090;18.348;2024-02-28T00:13:25;13.40;91.60
65582;DHT22;52231;40.090;18.348;2024-02-28T00:15:54;13.40;91.50
65582;DHT22;52231;40.090;18.348;2024-02-28T00:18:22;13.40;91.50
65582;DHT22;52231;40.090;18.348;2024-02-28T00:20:50;13.30;91.60
65582;DHT22;52231;40.090;18.348;2024-02-28T00:23:18;13.40;91.60
65582;DHT22;52231;40.090;18.348;2024-02-28T00:25:46;13.40;91.60
65582;DHT22;52231;40.090;18.348;2024-02-28T00:28:14;13.30;91.60
65582;DHT22;52231;40.090;18.348;2024-02-28T00:30:42;13.30;91.60
65582;DHT22;52231;40.090;18.348;2024-02-28T00:33:10;13.30;91.60
65582;DHT22;52231;40.090;18.348;2024-02-28T00:35:39;13.30;91.60
65582;DHT22;52231;40.090;18.348;2024-02-28T00:38:08;13.30;91.60
65582;DHT22;52231;40.090;18.348;2024-02-28T00:40:36;13.30;91.60
65582;DHT22;52231;40.090;18.348;2024-02-28T00:43:04;13.20;91.50
65582;DHT22;52231;40.090;18.348;2024-02-28T00:45:32;13.20;91.40
65582;DHT22;52231;40.090;18.348;2024-02-28T00:48:00;13.20;91.30
65582;DHT22;52231;40.090;18.348;2024-02-28T00:50:28;13.30;91.30
65582;DHT22;52231;40.090;18.348;2024-02-28T00:52:56;13.20;91.30
65582;DHT22;52231;40.090;18.348;2024-02-28T00:55:25;13.20;91.20
65582;DHT22;52231;40.090;18.348;2024-02-28T00:57:53;13.20;91.20
65582;DHT22;52231;40.090;18.348;2024-02-28T01:00:21;13.10;91.10
65582;DHT22;52231;40.090;18.348;2024-02-28T01:02:49;13.10;91.10
65582;DHT22;52231;40.090;18.348;2024-02-28T01:05:17;13.20;91.10
65582;DHT22;52231;40.090;18.348;2024-02-28T01:07:46;13.10;91.00
65582;DHT22;52231;40.090;18.348;2024-02-28T01:10:14;13.10;91.00
65582;DHT22;52231;40.090;18.348;2024-02-28T01:12:42;13.10;91.10
65582;DHT22;52231;40.090;18.348;2024-02-28T01:15:10;13.10;91.10
65582;DHT22;52231;40.090;18.348;2024-02-28T01:17:38;13.10;91.10
65582;DHT22;52231;40.090;18.348;2024-02-28T01:20:07;13.10;91.20
65582;DHT22;52231;40.090;18.348;2024-02-28T01:22:36;13.10;91.20
65582;DHT22;52231;40.090;18.348;2024-02-28T01:25:04;13.10;91.20
65582;DHT22;52231;40.090;18.348;2024-02-28T01:27:32;13.10;91.20
65582;DHT22;52231;40.090;18.348;2024-02-28T01:30:01;13.10;91.30
65582;DHT22;52231;40.090;18.348;2024-02-28T01:32:29;13.10;91.30
65582;DHT22;52231;40.090;18.348;2024-02-28T01:34:58;13.20;91.30
65582;DHT22;52231;40.090;18.348;2024-02-28T01:37:26;13.20;91.30
65582;DHT22;52231;40.090;18.348;2024-02-28T01:39:54;13.20;91.40
65582;DHT22;52231;40.090;18.348;2024-02-28T01:42:22;13.10;91.30
65582;DHT22;52231;40.090;18.348;2024-02-28T01:44:50;13.10;91.40
65582;DHT22;52231;40.090;18.348;2024-02-28T01:47:18;13.10;91.40
65582;DHT22;52231;40.090;18.348;2024-02-28T01:49:47;13.10;91.40
65582;DHT22;52231;40.090;18.348;2024-02-28T01:52:15;13.10;91.50
65582;DHT22;52231;40.090;18.348;2024-02-28T01:54:43;13.10;91.50
65582;DHT22;52231;40.090;18.348;2024-02-28T01:57:12;13.10;91.50
65582;DHT22;52231;40.090;18.348;2024-02-28T01:59:40;13.10;91.50
65582;DHT22;52231;40.090;18.348;2024-02-28T02:02:10;13.20;91.50
65582;DHT22;52231;40.090;18.348;2024-02-28T02:04:38;13.20;91.50
65582;DHT22;52231;40.090;18.348;2024-02-28T02:07:06;13.10;91.50
65582;DHT22;52231;40.090;18.348;2024-02-28T02:09:34;13.20;91.60
65582;DHT22;52231;40.090;18.348;2024-02-28T02:12:03;13.10;91.60
65582;DHT22;52231;40.090;18.348;2024-02-28T02:14:31;13.20;91.60
65582;DHT22;52231;40.090;18.348;2024-02-28T02:16:59;13.10;91.50
65582;DHT22;52231;40.090;18.348;2024-02-28T02:19:27;13.20;91.60
65582;DHT22;52231;40.090;18.348;2024-02-28T02:21:58;13.10;91.60
65582;DHT22;52231;40.090;18.348;2024-02-28T02:24:26;13.20;91.60
65582;DHT22;52231;40.090;18.348;2024-02-28T02:27:01;13.20;91.60
65582;DHT22;52231;40.090;18.348;2024-02-28T02:29:32;13.10;91.50
65582;DHT22;52231;40.090;18.348;2024-02-28T02:32:00;13.20;91.60
65582;DHT22;52231;40.090;18.348;2024-02-28T02:34:28;13.10;91.60
65582;DHT22;52231;40.090;18.348;2024-02-28T02:36:56;13.20;91.50
65582;DHT22;52231;40.090;18.348;2024-02-28T02:39:24;13.30;91.60
65582;DHT22;52231;40.090;18.348;2024-02-28T02:41:52;13.30;91.60
65582;DHT22;52231;40.090;18.348;2024-02-28T02:44:20;13.20;91.50
65582;DHT22;52231;40.090;18.348;2024-02-28T02:46:49;13.20;91.50
65582;DHT22;52231;40.090;18.348;2024-02-28T02:49:17;13.30;91.50
65582;DHT22;52231;40.090;18.348;2024-02-28T02:51:46;13.20;91.50
65582;DHT22;52231;40.090;18.348;2024-02-28T02:54:14;13.30;91.40
65582;DHT22;52231;40.090;18.348;2024-02-28T02:56:42;13.30;91.50
65582;DHT22;52231;40.090;18.348;2024-02-28T02:59:11;13.30;91.40
65582;DHT22;52231;40.090;18.348;2024-02-28T03:01:40;13.40;91.40
65582;DHT22;52231;40.090;18.348;2024-02-28T03:04:07;13.40;91.40
65582;DHT22;52231;40.090;18.348;2024-02-28T03:06:35;13.40;91.30
65582;DHT22;52231;40.090;18.348;2024-02-28T03:09:03;13.50;91.30
65582;DHT22;52231;40.090;18.348;2024-02-28T03:11:31;13.50;91.20
65582;DHT22;52231;40.090;18.348;2024-02-28T03:14:00;13.60;91.20
65582;DHT22;52231;40.090;18.348;2024-02-28T03:16:28;13.60;91.10
65582;DHT22;52231;40.090;18.348;2024-02-28T03:18:56;13.70;91.10
65582;DHT22;52231;40.090;18.348;2024-02-28T03:21:24;13.60;91.00
65582;DHT22;52231;40.090;18.348;2024-02-28T03:23:52;13.70;91.10
65582;DHT22;52231;40.090;18.348;2024-02-28T03:26:20;13.60;90.90
65582;DHT22;52231;40.090;18.348;2024-02-28T03:28:48;13.60;90.90
65582;DHT22;52231;40.090;18.348;2024-02-28T03:31:16;13.70;90.70
65582;DHT22;52231;40.090;18.348;2024-02-28T03:33:44;13.60;90.60
65582;DHT22;52231;40.090;18.348;2024-02-28T03:36:14;13.70;90.50
65582;DHT22;52231;40.090;18.348;2024-02-28T03:38:42;13.60;90.50
65582;DHT22;52231;40.090;18.348;2024-02-28T03:41:10;13.70;90.60
65582;DHT22;52231;40.090;18.348;2024-02-28T03:43:38;13.80;90.60
65582;DHT22;52231;40.090;18.348;2024-02-28T03:46:06;13.70;90.40
65582;DHT22;52231;40.090;18.348;2024-02-28T03:48:34;13.80;90.50
65582;DHT22;52231;40.090;18.348;2024-02-28T03:51:03;13.80;90.40
65582;DHT22;52231;40.090;18.348;2024-02-28T03:53:31;13.80;90.40
65582;DHT22;52231;40.090;18.348;2024-02-28T03:55:59;13.80;90.40
65582;DHT22;52231;40.090;18.348;2024-02-28T03:58:30;13.70;90.40
65582;DHT22;52231;40.090;18.348;2024-02-28T04:00:59;13.70;90.50
65582;DHT22;52231;40.090;18.348;2024-02-28T04:03:57;13.70;90.50
65582;DHT22;52231;40.090;18.348;2024-02-28T04:06:25;13.60;90.50
65582;DHT22;52231;40.090;18.348;2024-02-28T04:08:53;13.50;90.50
65582;DHT22;52231;40.090;18.348;2024-02-28T04:11:21;13.50;90.60
65582;DHT22;52231;40.090;18.348;2024-02-28T04:13:49;13.50;90.60
65582;DHT22;52231;40.090;18.348;2024-02-28T04:16:17;13.60;90.70
65582;DHT22;52231;40.090;18.348;2024-02-28T04:18:49;13.50;90.80
65582;DHT22;52231;40.090;18.348;2024-02-28T04:21:16;13.60;90.90
65582;DHT22;52231;40.090;18.348;2024-02-28T04:23:45;13.50;90.90
65582;DHT22;52231;40.090;18.348;2024-02-28T04:26:13;13.50;91.00
65582;DHT22;52231;40.090;18.348;2024-02-28T04:28:42;13.50;91.10
65582;DHT22;52231;40.090;18.348;2024-02-28T04:31:10;13.50;91.10
65582;DHT22;52231;40.090;18.348;2024-02-28T04:33:38;13.50;91.10
65582;DHT22;52231;40.090;18.348;2024-02-28T04:36:06;13.50;91.20
65582;DHT22;52231;40.090;18.348;2024-02-28T04:38:34;13.50;91.30
65582;DHT22;52231;40.090;18.348;2024-02-28T04:41:02;13.50;91.30
65582;DHT22;52231;40.090;18.348;2024-02-28T04:43:31;13.60;91.30
65582;DHT22;52231;40.090;18.348;2024-02-28T04:45:59;13.50;91.30
65582;DHT22;52231;40.090;18.348;2024-02-28T04:48:27;13.60;91.30
65582;DHT22;52231;40.090;18.348;2024-02-28T04:50:55;13.60;91.30
65582;DHT22;52231;40.090;18.348;2024-02-28T04:53:23;13.50;91.40
65582;DHT22;52231;40.090;18.348;2024-02-28T04:55:54;13.50;91.40
65582;DHT22;52231;40.090;18.348;2024-02-28T04:58:23;13.60;91.50
65582;DHT22;52231;40.090;18.348;2024-02-28T05:00:51;13.60;91.50
65582;DHT22;52231;40.090;18.348;2024-02-28T05:03:20;13.50;91.50
65582;DHT22;52231;40.090;18.348;2024-02-28T05:05:50;13.50;91.50
65582;DHT22;52231;40.090;18.348;2024-02-28T05:08:19;13.60;91.60
65582;DHT22;52231;40.090;18.348;2024-02-28T05:10:49;13.50;91.50
65582;DHT22;52231;40.090;18.348;2024-02-28T05:13:18;13.60;91.50
65582;DHT22;52231;40.090;18.348;2024-02-28T05:15:46;13.50;91.60
65582;DHT22;52231;40.090;18.348;2024-02-28T05:18:14;13.60;91.60
65582;DHT22;52231;40.090;18.348;2024-02-28T05:20:43;13.60;91.60
65582;DHT22;52231;40.090;18.348;2024-02-28T05:23:11;13.60;91.60
65582;DHT22;52231;40.090;18.348;2024-02-28T05:25:39;13.60;91.60
65582;DHT22;52231;40.090;18.348;2024-02-28T05:28:07;13.60;91.60
65582;DHT22;52231;40.090;18.348;2024-02-28T05:30:35;13.60;91.70
65582;DHT22;52231;40.090;18.348;2024-02-28T05:33:04;13.70;91.70
65582;DHT22;52231;40.090;18.348;2024-02-28T05:35:32;13.60;91.70
65582;DHT22;52231;40.090;18.348;2024-02-28T05:38:00;13.70;91.80
65582;DHT22;52231;40.090;18.348;2024-02-28T05:40:28;13.70;91.80
65582;DHT22;52231;40.090;18.348;2024-02-28T05:42:56;13.80;91.80
65582;DHT22;52231;40.090;18.348;2024-02-28T05:45:24;13.80;91.80
65582;DHT22;52231;40.090;18.348;2024-02-28T05:47:53;13.80;91.70
65582;DHT22;52231;40.090;18.348;2024-02-28T05:50:23;13.90;91.80
65582;DHT22;52231;40.090;18.348;2024-02-28T05:52:52;14.00;91.70
65582;DHT22;52231;40.090;18.348;2024-02-28T05:55:20;14.10;91.60
65582;DHT22;52231;40.090;18.348;2024-02-28T05:57:51;14.20;91.50
65582;DHT22;52231;40.090;18.348;2024-02-28T06:00:19;14.20;91.30
65582;DHT22;52231;40.090;18.348;2024-02-28T06:02:47;14.20;91.10
65582;DHT22;52231;40.090;18.348;2024-02-28T06:05:16;14.40;91.00
65582;DHT22;52231;40.090;18.348;2024-02-28T06:07:44;14.60;90.90
65582;DHT22;52231;40.090;18.348;2024-02-28T06:10:12;14.60;90.50
65582;DHT22;52231;40.090;18.348;2024-02-28T06:12:40;14.60;90.30
65582;DHT22;52231;40.090;18.348;2024-02-28T06:15:08;14.60;89.90
65582;DHT22;52231;40.090;18.348;2024-02-28T06:17:36;14.70;89.70
65582;DHT22;52231;40.090;18.348;2024-02-28T06:20:05;14.70;89.30
65582;DHT22;52231;40.090;18.348;2024-02-28T06:22:34;14.90;89.20
65582;DHT22;52231;40.090;18.348;2024-02-28T06:25:02;15.30;88.70
65582;DHT22;52231;40.090;18.348;2024-02-28T06:27:30;15.50;87.90
65582;DHT22;52231;40.090;18.348;2024-02-28T06:29:59;15.70;86.70
65582;DHT22;52231;40.090;18.348;2024-02-28T06:32:27;15.90;85.80
65582;DHT22;52231;40.090;18.348;2024-02-28T06:34:55;16.00;85.00
65582;DHT22;52231;40.090;18.348;2024-02-28T06:37:23;16.10;84.40
65582;DHT22;52231;40.090;18.348;2024-02-28T06:39:51;16.30;83.80
65582;DHT22;52231;40.090;18.348;2024-02-28T06:42:20;16.50;83.30
65582;DHT22;52231;40.090;18.348;2024-02-28T06:44:48;16.60;82.70
65582;DHT22;52231;40.090;18.348;2024-02-28T06:47:17;16.60;81.90
65582;DHT22;52231;40.090;18.348;2024-02-28T06:49:45;16.60;81.80
65582;DHT22;52231;40.090;18.348;2024-02-28T06:55:57;16.80;81.50
65582;DHT22;52231;40.090;18.348;2024-02-28T06:58:25;16.80;81.00
65582;DHT22;52231;40.090;18.348;2024-02-28T07:00:54;16.70;81.20
65582;DHT22;52231;40.090;18.348;2024-02-28T07:03:22;16.50;81.40
65582;DHT22;52231;40.090;18.348;2024-02-28T07:05:50;16.30;81.30
65582;DHT22;52231;40.090;18.348;2024-02-28T07:08:19;16.20;81.40
65582;DHT22;52231;40.090;18.348;2024-02-28T07:10:48;16.10;82.00
65582;DHT22;52231;40.090;18.348;2024-02-28T07:13:21;16.30;82.30
65582;DHT22;52231;40.090;18.348;2024-02-28T07:15:49;16.60;81.70
65582;DHT22;52231;40.090;18.348;2024-02-28T07:18:17;16.80;80.40
65582;DHT22;52231;40.090;18.348;2024-02-28T07:20:45;17.10;79.80
65582;DHT22;52231;40.090;18.348;2024-02-28T07:23:13;17.30;79.10
65582;DHT22;52231;40.090;18.348;2024-02-28T07:25:41;17.30;78.50
65582;DHT22;52231;40.090;18.348;2024-02-28T07:32:10;17.30;77.80
65582;DHT22;52231;40.090;18.348;2024-02-28T07:34:39;17.50;77.80
65582;DHT22;52231;40.090;18.348;2024-02-28T07:37:07;17.80;77.70
65582;DHT22;52231;40.090;18.348;2024-02-28T07:39:35;18.10;76.80
65582;DHT22;52231;40.090;18.348;2024-02-28T07:42:03;18.10;75.90
65582;DHT22;52231;40.090;18.348;2024-02-28T07:44:31;18.00;75.90
65582;DHT22;52231;40.090;18.348;2024-02-28T07:46:59;18.10;75.70
65582;DHT22;52231;40.090;18.348;2024-02-28T07:49:28;18.00;75.10
65582;DHT22;52231;40.090;18.348;2024-02-28T07:51:56;18.00;75.70
65582;DHT22;52231;40.090;18.348;2024-02-28T07:54:24;17.70;75.30
65582;DHT22;52231;40.090;18.348;2024-02-28T07:56:54;17.50;76.50
65582;DHT22;52231;40.090;18.348;2024-02-28T07:59:21;17.40;76.80
65582;DHT22;52231;40.090;18.348;2024-02-28T08:01:49;17.30;77.30
65582;DHT22;52231;40.090;18.348;2024-02-28T08:04:19;17.40;77.30
65582;DHT22;52231;40.090;18.348;2024-02-28T08:06:47;17.50;77.20
65582;DHT22;52231;40.090;18.348;2024-02-28T08:09:15;17.60;76.70
65582;DHT22;52231;40.090;18.348;2024-02-28T08:11:43;17.90;76.60
65582;DHT22;52231;40.090;18.348;2024-02-28T08:14:11;18.30;74.80
65582;DHT22;52231;40.090;18.348;2024-02-28T08:16:40;18.20;73.80
65582;DHT22;52231;40.090;18.348;2024-02-28T08:19:08;18.30;74.30
65582;DHT22;52231;40.090;18.348;2024-02-28T08:21:36;18.20;74.10
65582;DHT22;52231;40.090;18.348;2024-02-28T08:24:04;18.00;73.70
65582;DHT22;52231;40.090;18.348;2024-02-28T08:26:32;17.80;74.60
65582;DHT22;52231;40.090;18.348;2024-02-28T08:29:00;18.00;74.90
65582;DHT22;52231;40.090;18.348;2024-02-28T08:31:28;18.20;74.00
65582;DHT22;52231;40.090;18.348;2024-02-28T08:33:56;18.30;73.90
65582;DHT22;52231;40.090;18.348;2024-02-28T08:36:24;18.30;73.80
65582;DHT22;52231;40.090;18.348;2024-02-28T08:38:52;18.10;74.30
65582;DHT22;52231;40.090;18.348;2024-02-28T08:41:21;18.30;74.90
65582;DHT22;52231;40.090;18.348;2024-02-28T08:43:49;18.30;74.80
65582;DHT22;52231;40.090;18.348;2024-02-28T08:46:17;18.40;75.20
65582;DHT22;52231;40.090;18.348;2024-02-28T08:48:45;18.50;73.80
65582;DHT22;52231;40.090;18.348;2024-02-28T08:51:13;18.50;73.40
65582;DHT22;52231;40.090;18.348;2024-02-28T08:53:42;18.70;73.20
65582;DHT22;52231;40.090;18.348;2024-02-28T08:56:10;18.60;72.60
65582;DHT22;52231;40.090;18.348;2024-02-28T08:58:38;18.40;74.10
65582;DHT22;52231;40.090;18.348;2024-02-28T09:01:07;18.80;72.10
65582;DHT22;52231;40.090;18.348;2024-02-28T09:03:35;19.30;71.50
65582;DHT22;52231;40.090;18.348;2024-02-28T09:06:03;19.40;69.90
65582;DHT22;52231;40.090;18.348;2024-02-28T09:08:31;19.30;69.60
65582;DHT22;52231;40.090;18.348;2024-02-28T09:11:00;19.20;70.50
65582;DHT22;52231;40.090;18.348;2024-02-28T09:13:29;19.00;70.10
65582;DHT22;52231;40.090;18.348;2024-02-28T09:15:58;19.00;70.70
65582;DHT22;52231;40.090;18.348;2024-02-28T09:18:26;19.20;69.90
65582;DHT22;52231;40.090;18.348;2024-02-28T09:20:54;19.10;69.20
65582;DHT22;52231;40.090;18.348;2024-02-28T09:23:22;18.90;70.40
65582;DHT22;52231;40.090;18.348;2024-02-28T09:25:50;18.90;70.60
65582;DHT22;52231;40.090;18.348;2024-02-28T09:28:18;18.80;71.80
65582;DHT22;52231;40.090;18.348;2024-02-28T09:30:47;19.20;70.60
65582;DHT22;52231;40.090;18.348;2024-02-28T09:33:19;19.50;70.00
65582;DHT22;52231;40.090;18.348;2024-02-28T09:35:47;19.40;68.80
65582;DHT22;52231;40.090;18.348;2024-02-28T09:38:15;19.30;70.00
65582;DHT22;52231;40.090;18.348;2024-02-28T09:40:46;19.30;69.80
65582;DHT22;52231;40.090;18.348;2024-02-28T09:43:22;19.10;69.20
65582;DHT22;52231;40.090;18.348;2024-02-28T09:45:54;19.30;70.10
65582;DHT22;52231;40.090;18.348;2024-02-28T09:48:25;19.30;69.50
65582;DHT22;52231;40.090;18.348;2024-02-28T09:50:57;19.50;69.80
65582;DHT22;52231;40.090;18.348;2024-02-28T09:53:26;19.80;68.40
65582;DHT22;52231;40.090;18.348;2024-02-28T09:55:54;19.80;68.60
65582;DHT22;52231;40.090;18.348;2024-02-28T09:58:23;19.90;68.70
65582;DHT22;52231;40.090;18.348;2024-02-28T10:00:52;20.00;68.30
65582;DHT22;52231;40.090;18.348;2024-02-28T10:03:25;20.00;66.40
65582;DHT22;52231;40.090;18.348;2024-02-28T10:05:53;19.80;66.50
65582;DHT22;52231;40.090;18.348;2024-02-28T10:08:22;19.80;68.20
65582;DHT22;52231;40.090;18.348;2024-02-28T10:10:51;19.70;68.00
65582;DHT22;52231;40.090;18.348;2024-02-28T10:13:23;19.60;68.70
65582;DHT22;52231;40.090;18.348;2024-02-28T10:15:52;19.40;68.80
65582;DHT22;52231;40.090;18.348;2024-02-28T10:18:20;19.40;68.80
65582;DHT22;52231;40.090;18.348;2024-02-28T10:20:48;19.40;67.60
65582;DHT22;52231;40.090;18.348;2024-02-28T10:23:16;19.50;68.00
65582;DHT22;52231;40.090;18.348;2024-02-28T10:25:45;19.70;67.60
65582;DHT22;52231;40.090;18.348;2024-02-28T10:28:15;19.80;67.80
65582;DHT22;52231;40.090;18.348;2024-02-28T10:30:44;19.60;67.00
65582;DHT22;52231;40.090;18.348;2024-02-28T10:33:15;19.60;67.70
65582;DHT22;52231;40.090;18.348;2024-02-28T10:35:43;19.60;68.10
65582;DHT22;52231;40.090;18.348;2024-02-28T10:38:13;19.60;67.30
65582;DHT22;52231;40.090;18.348;2024-02-28T10:40:42;19.50;67.60
65582;DHT22;52231;40.090;18.348;2024-02-28T10:43:10;19.50;67.50
65582;DHT22;52231;40.090;18.348;2024-02-28T10:45:39;19.60;67.50
65582;DHT22;52231;40.090;18.348;2024-02-28T10:48:08;19.60;66.50
65582;DHT22;52231;40.090;18.348;2024-02-28T10:50:37;19.60;67.50
65582;DHT22;52231;40.090;18.348;2024-02-28T10:53:07;19.60;67.70
65582;DHT22;52231;40.090;18.348;2024-02-28T10:55:40;19.60;67.30
65582;DHT22;52231;40.090;18.348;2024-02-28T10:58:10;19.50;68.10
65582;DHT22;52231;40.090;18.348;2024-02-28T11:00:40;19.40;68.00
65582;DHT22;52231;40.090;18.348;2024-02-28T11:03:19;19.30;68.30
65582;DHT22;52231;40.090;18.348;2024-02-28T11:05:48;19.30;67.90
65582;DHT22;52231;40.090;18.348;2024-02-28T11:08:23;19.50;67.90
65582;DHT22;52231;40.090;18.348;2024-02-28T11:10:57;19.80;67.40
65582;DHT22;52231;40.090;18.348;2024-02-28T11:13:27;19.90;66.80
65582;DHT22;52231;40.090;18.348;2024-02-28T11:15:55;19.90;66.00
65582;DHT22;52231;40.090;18.348;2024-02-28T11:18:23;20.10;66.70
65582;DHT22;52231;40.090;18.348;2024-02-28T11:20:51;20.20;67.30
65582;DHT22;52231;40.090;18.348;2024-02-28T11:23:23;20.30;64.80
65582;DHT22;52231;40.090;18.348;2024-02-28T11:25:51;20.40;65.20
65582;DHT22;52231;40.090;18.348;2024-02-28T11:28:20;20.50;65.20
65582;DHT22;52231;40.090;18.348;2024-02-28T11:30:52;20.70;64.40
65582;DHT22;52231;40.090;18.348;2024-02-28T11:33:21;20.70;63.30
65582;DHT22;52231;40.090;18.348;2024-02-28T11:35:57;20.70;62.90
65582;DHT22;52231;40.090;18.348;2024-02-28T11:38:29;20.80;63.20
65582;DHT22;52231;40.090;18.348;2024-02-28T11:40:57;20.90;62.70
65582;DHT22;52231;40.090;18.348;2024-02-28T11:43:33;20.90;62.10
65582;DHT22;52231;40.090;18.348;2024-02-28T11:46:09;20.70;62.50
65582;DHT22;52231;40.090;18.348;2024-02-28T11:48:39;20.50;64.00
65582;DHT22;52231;40.090;18.348;2024-02-28T11:51:07;20.40;64.00
65582;DHT22;52231;40.090;18.348;2024-02-28T11:53:35;20.30;64.20
65582;DHT22;52231;40.090;18.348;2024-02-28T11:56:03;20.10;64.20
65582;DHT22;52231;40.090;18.348;2024-02-28T11:58:31;20.20;64.60
65582;DHT22;52231;40.090;18.348;2024-02-28T12:00:59;20.30;64.80
65582;DHT22;52231;40.090;18.348;2024-02-28T12:03:28;20.30;65.00
65582;DHT22;52231;40.090;18.348;2024-02-28T12:05:57;20.20;64.20
65582;DHT22;52231;40.090;18.348;2024-02-28T12:08:27;20.30;65.30
65582;DHT22;52231;40.090;18.348;2024-02-28T12:11:06;20.40;65.30
65582;DHT22;52231;40.090;18.348;2024-02-28T12:13:35;20.50;64.10
65582;DHT22;52231;40.090;18.348;2024-02-28T12:16:03;20.40;64.10
65582;DHT22;52231;40.090;18.348;2024-02-28T12:18:31;20.60;63.80
65582;DHT22;52231;40.090;18.348;2024-02-28T12:20:59;20.50;62.70
65582;DHT22;52231;40.090;18.348;2024-02-28T12:23:27;20.60;62.80
65582;DHT22;52231;40.090;18.348;2024-02-28T12:25:55;20.80;61.80
65582;DHT22;52231;40.090;18.348;2024-02-28T12:28:23;21.00;62.30
65582;DHT22;52231;40.090;18.348;2024-02-28T12:30:51;20.90;61.70
65582;DHT22;52231;40.090;18.348;2024-02-28T12:33:21;20.80;61.30
65582;DHT22;52231;40.090;18.348;2024-02-28T12:35:50;20.80;62.30
65582;DHT22;52231;40.090;18.348;2024-02-28T12:38:24;20.70;61.50
65582;DHT22;52231;40.090;18.348;2024-02-28T12:40:52;20.70;62.00
65582;DHT22;52231;40.090;18.348;2024-02-28T12:43:22;20.60;62.20
65582;DHT22;52231;40.090;18.348;2024-02-28T12:45:59;20.30;60.90
65582;DHT22;52231;40.090;18.348;2024-02-28T12:48:28;20.30;62.00
65582;DHT22;52231;40.090;18.348;2024-02-28T12:50:57;20.20;61.60
65582;DHT22;52231;40.090;18.348;2024-02-28T12:53:25;20.10;62.00
65582;DHT22;52231;40.090;18.348;2024-02-28T12:55:54;19.90;63.00
65582;DHT22;52231;40.090;18.348;2024-02-28T12:58:23;20.10;63.40
65582;DHT22;52231;40.090;18.348;2024-02-28T13:00:54;20.20;63.40
65582;DHT22;52231;40.090;18.348;2024-02-28T13:03:22;20.30;63.30
65582;DHT22;52231;40.090;18.348;2024-02-28T13:05:51;20.10;61.40
65582;DHT22;52231;40.090;18.348;2024-02-28T13:08:21;19.90;61.70
65582;DHT22;52231;40.090;18.348;2024-02-28T13:10:50;19.90;62.20
65582;DHT22;52231;40.090;18.348;2024-02-28T13:13:19;19.80;62.70
65582;DHT22;52231;40.090;18.348;2024-02-28T13:15:47;19.80;62.70
65582;DHT22;52231;40.090;18.348;2024-02-28T13:18:15;19.60;62.50
65582;DHT22;52231;40.090;18.348;2024-02-28T13:20:43;19.60;62.90
65582;DHT22;52231;40.090;18.348;2024-02-28T13:23:11;19.80;62.70
65582;DHT22;52231;40.090;18.348;2024-02-28T13:25:39;19.90;62.30
65582;DHT22;52231;40.090;18.348;2024-02-28T13:28:10;19.90;61.60
65582;DHT22;52231;40.090;18.348;2024-02-28T13:30:45;19.90;61.20
65582;DHT22;52231;40.090;18.348;2024-02-28T13:33:14;19.90;61.30
65582;DHT22;52231;40.090;18.348;2024-02-28T13:35:43;19.70;60.80
65582;DHT22;52231;40.090;18.348;2024-02-28T13:38:16;19.70;61.70
65582;DHT22;52231;40.090;18.348;2024-02-28T13:40:55;19.70;60.90
65582;DHT22;52231;40.090;18.348;2024-02-28T13:43:29;19.30;61.10
65582;DHT22;52231;40.090;18.348;2024-02-28T13:46:00;19.20;62.30
65582;DHT22;52231;40.090;18.348;2024-02-28T13:48:30;19.30;62.10
65582;DHT22;52231;40.090;18.348;2024-02-28T13:51:13;19.30;62.20
65582;DHT22;52231;40.090;18.348;2024-02-28T13:53:42;19.30;61.90
65582;DHT22;52231;40.090;18.348;2024-02-28T13:56:10;19.20;61.90
65582;DHT22;52231;40.090;18.348;2024-02-28T13:58:42;19.20;61.40
65582;DHT22;52231;40.090;18.348;2024-02-28T14:01:12;19.10;62.10
65582;DHT22;52231;40.090;18.348;2024-02-28T14:03:40;19.20;62.40
65582;DHT22;52231;40.090;18.348;2024-02-28T14:06:09;19.30;62.10
65582;DHT22;52231;40.090;18.348;2024-02-28T14:08:37;19.40;61.90
65582;DHT22;52231;40.090;18.348;2024-02-28T14:11:05;19.30;62.20
65582;DHT22;52231;40.090;18.348;2024-02-28T14:13:33;19.30;62.30
65582;DHT22;52231;40.090;18.348;2024-02-28T14:16:01;19.20;63.10
65582;DHT22;52231;40.090;18.348;2024-02-28T14:18:31;19.20;63.10
65582;DHT22;52231;40.090;18.348;2024-02-28T14:20:59;19.10;63.50
65582;DHT22;52231;40.090;18.348;2024-02-28T14:23:30;19.00;64.00
65582;DHT22;52231;40.090;18.348;2024-02-28T14:25:58;18.90;64.60
65582;DHT22;52231;40.090;18.348;2024-02-28T14:28:26;18.90;64.40
65582;DHT22;52231;40.090;18.348;2024-02-28T14:30:54;18.90;65.20
65582;DHT22;52231;40.090;18.348;2024-02-28T14:33:33;19.10;65.00
65582;DHT22;52231;40.090;18.348;2024-02-28T14:36:11;19.10;64.60
65582;DHT22;52231;40.090;18.348;2024-02-28T14:38:45;19.10;64.50
65582;DHT22;52231;40.090;18.348;2024-02-28T14:41:16;19.00;64.30
65582;DHT22;52231;40.090;18.348;2024-02-28T14:43:50;19.00;64.70
65582;DHT22;52231;40.090;18.348;2024-02-28T14:46:19;19.00;64.80
65582;DHT22;52231;40.090;18.348;2024-02-28T14:48:52;19.00;64.50
65582;DHT22;52231;40.090;18.348;2024-02-28T14:51:28;19.00;64.70
65582;DHT22;52231;40.090;18.348;2024-02-28T14:54:01;18.90;65.00
65582;DHT22;52231;40.090;18.348;2024-02-28T14:56:53;18.80;65.40
65582;DHT22;52231;40.090;18.348;2024-02-28T14:59:24;18.70;65.70
65582;DHT22;52231;40.090;18.348;2024-02-28T15:02:11;18.40;66.20
65582;DHT22;52231;40.090;18.348;2024-02-28T15:04:42;18.20;67.30
65582;DHT22;52231;40.090;18.348;2024-02-28T15:07:11;18.10;67.60
65582;DHT22;52231;40.090;18.348;2024-02-28T15:09:39;18.00;68.30
65582;DHT22;52231;40.090;18.348;2024-02-28T15:12:11;18.00;68.80
65582;DHT22;52231;40.090;18.348;2024-02-28T15:14:44;17.90;68.80
65582;DHT22;52231;40.090;18.348;2024-02-28T15:17:18;17.80;69.00
65582;DHT22;52231;40.090;18.348;2024-02-28T15:19:57;17.70;69.90
65582;DHT22;52231;40.090;18.348;2024-02-28T15:22:29;17.70;70.10
65582;DHT22;52231;40.090;18.348;2024-02-28T15:25:22;17.50;70.50
65582;DHT22;52231;40.090;18.348;2024-02-28T15:27:57;17.40;71.00
65582;DHT22;52231;40.090;18.348;2024-02-28T15:30:34;17.40;71.40
65582;DHT22;52231;40.090;18.348;2024-02-28T15:33:06;17.30;71.60
65582;DHT22;52231;40.090;18.348;2024-02-28T15:35:38;17.10;72.10